createdAt,value
2018-03-20T00:01:37.684Z,-5.68
2018-03-20T00:04:05.209Z,-5.65
2018-03-20T00:06:32.780Z,-5.66
2018-03-20T00:09:00.381Z,-5.66
2018-03-20T00:11:28.007Z,-5.67
2018-03-20T00:13:55.620Z,-5.64
2018-03-20T00:16:23.183Z,-5.62
2018-03-20T00:18:50.754Z,-5.60
2018-03-20T00:21:18.398Z,-5.59
2018-03-20T00:23:45.954Z,-5.56
2018-03-20T00:26:13.510Z,-5.52
2018-03-20T00:28:41.137Z,-5.53
2018-03-20T00:31:08.702Z,-5.57
2018-03-20T00:33:36.273Z,-5.56
2018-03-20T00:36:04.246Z,-5.56
2018-03-20T00:38:31.891Z,-5.55
2018-03-20T00:40:59.548Z,-5.55
2018-03-20T00:43:27.173Z,-5.59
2018-03-20T00:45:55.097Z,-5.60
2018-03-20T00:48:22.670Z,-5.56
2018-03-20T00:50:50.250Z,-5.56
2018-03-20T00:53:17.823Z,-5.56
2018-03-20T00:55:45.383Z,-5.59
2018-03-20T00:58:12.972Z,-5.63
2018-03-20T01:00:40.548Z,-5.62
2018-03-20T01:03:08.130Z,-5.60
2018-03-20T01:05:35.725Z,-5.56
2018-03-20T01:08:03.302Z,-5.58
2018-03-20T01:10:30.861Z,-5.53
2018-03-20T01:12:58.452Z,-5.53
2018-03-20T01:15:26.003Z,-5.56
2018-03-20T01:17:53.576Z,-5.56
2018-03-20T01:20:21.163Z,-5.50
2018-03-20T01:22:48.715Z,-5.49
2018-03-20T01:25:16.288Z,-5.46
2018-03-20T01:27:43.875Z,-5.47
2018-03-20T01:30:11.468Z,-5.50
2018-03-20T01:32:39.033Z,-5.58
2018-03-20T01:35:06.594Z,-5.59
2018-03-20T01:37:34.195Z,-5.58
2018-03-20T01:40:01.765Z,-5.58
2018-03-20T01:42:29.316Z,-5.51
2018-03-20T01:44:56.867Z,-5.50
2018-03-20T01:47:24.425Z,-5.49
2018-03-20T01:49:52.081Z,-5.51
2018-03-20T01:52:25.585Z,-5.47
2018-03-20T01:54:53.138Z,-5.49
2018-03-20T01:57:20.682Z,-5.52
2018-03-20T01:59:48.254Z,-5.49
2018-03-20T02:02:15.814Z,-5.45
2018-03-20T02:04:43.375Z,-5.48
2018-03-20T02:07:10.967Z,-5.50
2018-03-20T02:09:38.565Z,-5.46
2018-03-20T02:12:06.160Z,-5.44
2018-03-20T02:14:33.779Z,-5.41
2018-03-20T02:17:01.331Z,-5.43
2018-03-20T02:19:28.917Z,-5.46
2018-03-20T02:21:56.547Z,-5.49
2018-03-20T02:24:24.125Z,-5.46
2018-03-20T02:26:51.692Z,-5.48
2018-03-20T02:29:19.269Z,-5.47
2018-03-20T02:31:46.862Z,-5.45
2018-03-20T02:34:14.437Z,-5.46
2018-03-20T02:36:42.001Z,-5.46
2018-03-20T02:39:09.557Z,-5.45
2018-03-20T02:41:37.135Z,-5.41
2018-03-20T02:44:04.735Z,-5.42
2018-03-20T02:46:34.189Z,-5.45
2018-03-20T02:49:01.715Z,-5.37
2018-03-20T02:51:29.943Z,-5.37
2018-03-20T02:53:57.850Z,-5.39
2018-03-20T02:56:25.835Z,-5.37
2018-03-20T02:58:53.505Z,-5.38
2018-03-20T03:01:21.085Z,-5.36
2018-03-20T03:03:48.658Z,-5.33
2018-03-20T03:06:16.222Z,-5.33
2018-03-20T03:08:43.794Z,-5.31
2018-03-20T03:11:11.414Z,-5.31
2018-03-20T03:13:38.993Z,-5.33
2018-03-20T03:16:06.560Z,-5.30
2018-03-20T03:18:34.145Z,-5.24
2018-03-20T03:21:01.701Z,-5.19
2018-03-20T03:23:29.286Z,-5.21
2018-03-20T03:25:56.854Z,-5.20
2018-03-20T03:28:24.444Z,-5.23
2018-03-20T03:30:52.037Z,-5.24
2018-03-20T03:33:19.629Z,-5.23
2018-03-20T03:35:47.185Z,-5.27
2018-03-20T03:38:14.754Z,-5.31
2018-03-20T03:40:42.330Z,-5.34
2018-03-20T03:43:09.908Z,-5.29
2018-03-20T03:45:37.458Z,-5.25
2018-03-20T03:48:05.040Z,-5.19
2018-03-20T03:50:32.626Z,-5.21
2018-03-20T03:53:00.214Z,-5.30
2018-03-20T03:55:27.804Z,-5.26
2018-03-20T03:57:55.437Z,-5.24
2018-03-20T04:00:23.008Z,-5.26
2018-03-20T04:02:50.584Z,-5.27
2018-03-20T04:05:18.169Z,-5.22
2018-03-20T04:07:45.740Z,-5.26
2018-03-20T04:10:13.279Z,-5.28
2018-03-20T04:12:40.826Z,-5.28
2018-03-20T04:15:08.403Z,-5.26
2018-03-20T04:17:35.958Z,-5.29
2018-03-20T04:20:03.556Z,-5.29
2018-03-20T04:22:31.120Z,-5.33
2018-03-20T04:24:58.715Z,-5.34
2018-03-20T04:27:26.294Z,-5.37
2018-03-20T04:29:53.844Z,-5.34
2018-03-20T04:32:21.404Z,-5.28
2018-03-20T04:34:50.657Z,-5.29
2018-03-20T04:37:18.233Z,-5.32
2018-03-20T04:39:45.749Z,-5.34
2018-03-20T04:42:13.249Z,-5.30
2018-03-20T04:44:40.762Z,-5.31
2018-03-20T04:47:08.291Z,-5.32
2018-03-20T04:49:35.823Z,-5.34
2018-03-20T04:52:03.393Z,-5.30
2018-03-20T04:54:30.960Z,-5.21
2018-03-20T04:56:58.553Z,-5.27
2018-03-20T04:59:26.135Z,-5.26
2018-03-20T05:01:53.712Z,-5.27
2018-03-20T05:04:21.270Z,-5.24
2018-03-20T05:06:48.855Z,-5.27
2018-03-20T05:09:16.408Z,-5.18
2018-03-20T05:11:43.970Z,-5.14
2018-03-20T05:14:11.565Z,-5.12
2018-03-20T05:16:39.130Z,-5.21
2018-03-20T05:19:21.603Z,-5.17
2018-03-20T05:21:54.835Z,-5.16
2018-03-20T05:24:22.415Z,-5.18
2018-03-20T05:26:49.999Z,-5.14
2018-03-20T05:29:17.682Z,-5.08
2018-03-20T05:31:45.262Z,-5.04
2018-03-20T05:34:13.049Z,-5.04
2018-03-20T05:36:40.634Z,-5.00
2018-03-20T05:39:08.208Z,-4.99
2018-03-20T05:41:35.767Z,-5.01
2018-03-20T05:44:03.377Z,-4.98
2018-03-20T05:46:49.627Z,-4.97
2018-03-20T05:52:21.810Z,-4.94
2018-03-20T05:54:49.358Z,-4.92
2018-03-20T05:57:16.874Z,-4.93
2018-03-20T05:59:44.408Z,-4.88
2018-03-20T06:02:11.903Z,-4.79
2018-03-20T06:04:39.399Z,-4.75
2018-03-20T06:07:06.926Z,-4.79
2018-03-20T06:09:34.442Z,-4.75
2018-03-20T06:12:01.935Z,-4.70
2018-03-20T06:14:29.455Z,-4.65
2018-03-20T06:16:56.990Z,-4.62
2018-03-20T06:19:24.494Z,-4.57
2018-03-20T06:21:52.022Z,-4.60
2018-03-20T06:24:19.519Z,-4.66
2018-03-20T06:26:47.048Z,-4.54
2018-03-20T06:29:14.606Z,-4.39
2018-03-20T06:31:42.157Z,-4.36
2018-03-20T06:34:09.740Z,-4.24
2018-03-20T06:36:37.339Z,-4.23
2018-03-20T06:39:04.915Z,-4.24
2018-03-20T06:41:32.500Z,-4.17
2018-03-20T06:44:00.121Z,-4.00
2018-03-20T06:46:27.901Z,-3.94
2018-03-20T06:48:55.455Z,-3.97
2018-03-20T06:51:23.010Z,-3.80
2018-03-20T06:53:50.541Z,-3.75
2018-03-20T06:56:18.130Z,-3.85
2018-03-20T06:58:45.691Z,-3.89
2018-03-20T07:01:13.247Z,-3.85
2018-03-20T07:03:40.804Z,-3.87
2018-03-20T07:06:08.379Z,-3.94
2018-03-20T07:08:35.965Z,-3.90
2018-03-20T07:11:03.536Z,-3.74
2018-03-20T07:13:31.146Z,-3.69
2018-03-20T07:15:58.715Z,-3.90
2018-03-20T07:18:26.274Z,-3.91
2018-03-20T07:20:53.843Z,-3.79
2018-03-20T07:23:21.461Z,-3.91
2018-03-20T07:25:49.033Z,-3.90
2018-03-20T07:28:16.612Z,-3.85
2018-03-20T07:30:44.192Z,-3.81
2018-03-20T07:33:11.753Z,-3.73
2018-03-20T07:35:39.354Z,-3.70
2018-03-20T07:38:06.934Z,-3.64
2018-03-20T07:40:34.456Z,-3.64
2018-03-20T07:43:02.052Z,-3.65
2018-03-20T07:45:29.632Z,-3.53
2018-03-20T07:47:57.181Z,-3.58
2018-03-20T07:50:24.750Z,-3.51
2018-03-20T07:52:52.337Z,-3.58
2018-03-20T07:55:19.904Z,-3.46
2018-03-20T07:57:47.447Z,-3.49
2018-03-20T08:00:15.075Z,-3.40
2018-03-20T08:02:42.646Z,-3.24
2018-03-20T08:05:10.213Z,-3.15
2018-03-20T08:07:37.785Z,-3.19
2018-03-20T08:10:05.399Z,-3.09
2018-03-20T08:12:32.961Z,-2.93
2018-03-20T08:15:00.540Z,-2.92
2018-03-20T08:17:28.097Z,-2.73
2018-03-20T08:19:55.647Z,-2.64
2018-03-20T08:22:23.215Z,-2.52
2018-03-20T08:24:50.775Z,-2.38
2018-03-20T08:27:18.347Z,-2.61
2018-03-20T08:29:45.921Z,-2.60
2018-03-20T08:32:13.459Z,-2.56
2018-03-20T08:34:41.030Z,-2.82
2018-03-20T08:37:08.621Z,-2.82
2018-03-20T08:39:36.172Z,-2.59
2018-03-20T08:42:03.758Z,-2.41
2018-03-20T08:44:31.313Z,-2.42
2018-03-20T08:46:58.880Z,-2.57
2018-03-20T08:49:26.450Z,-2.69
2018-03-20T08:51:54.054Z,-2.59
2018-03-20T08:54:21.612Z,-2.48
2018-03-20T08:56:49.149Z,-2.42
2018-03-20T08:59:16.725Z,-2.66
2018-03-20T09:01:44.323Z,-2.70
2018-03-20T09:04:11.896Z,-2.68
2018-03-20T09:06:39.493Z,-2.49
2018-03-20T09:09:07.048Z,-2.34
2018-03-20T09:11:34.622Z,-2.13
2018-03-20T09:14:02.200Z,-2.03
2018-03-20T09:16:29.742Z,-1.81
2018-03-20T09:18:57.341Z,-1.90
2018-03-20T09:21:24.889Z,-2.34
2018-03-20T09:23:52.694Z,-2.20
2018-03-20T09:26:20.286Z,-2.01
2018-03-20T09:28:47.853Z,-1.88
2018-03-20T09:31:15.452Z,-1.84
2018-03-20T09:33:43.065Z,-1.65
2018-03-20T09:36:10.637Z,-1.79
2018-03-20T09:38:38.207Z,-2.08
2018-03-20T09:41:05.794Z,-1.77
2018-03-20T09:43:33.362Z,-2.19
2018-03-20T09:46:00.918Z,-2.02
2018-03-20T09:48:28.478Z,-1.76
2018-03-20T09:50:56.058Z,-1.64
2018-03-20T09:53:23.617Z,-1.68
2018-03-20T09:55:51.176Z,-1.82
2018-03-20T09:58:18.742Z,-1.77
2018-03-20T10:00:46.314Z,-1.76
2018-03-20T10:03:13.876Z,-1.61
2018-03-20T10:05:41.439Z,-1.30
2018-03-20T10:08:08.991Z,-1.47
2018-03-20T10:10:36.588Z,-1.36
2018-03-20T10:13:04.157Z,-1.27
2018-03-20T10:15:31.706Z,-0.87
2018-03-20T10:17:59.287Z,-1.07
2018-03-20T10:20:26.873Z,-1.06
2018-03-20T10:22:54.418Z,-1.14
2018-03-20T10:25:21.975Z,-1.01
2018-03-20T10:27:49.534Z,-1.20
2018-03-20T10:30:17.066Z,-1.28
2018-03-20T10:32:44.616Z,-1.43
2018-03-20T10:35:12.173Z,-1.55
2018-03-20T10:37:39.732Z,-1.41
2018-03-20T10:40:07.289Z,-1.59
2018-03-20T10:42:34.840Z,-1.47
2018-03-20T10:45:02.521Z,-1.33
2018-03-20T10:47:30.164Z,-1.42
2018-03-20T10:49:57.708Z,-1.12
2018-03-20T10:52:25.291Z,-1.00
2018-03-20T10:54:52.849Z,-0.85
2018-03-20T10:57:20.405Z,-1.02
2018-03-20T10:59:48.071Z,-1.19
2018-03-20T11:02:20.636Z,-1.43
2018-03-20T11:04:48.213Z,-1.51
2018-03-20T11:07:15.801Z,-1.64
2018-03-20T11:09:43.396Z,-1.41
2018-03-20T11:12:10.973Z,-1.40
2018-03-20T11:14:38.532Z,-1.52
2018-03-20T11:17:06.456Z,-1.32
2018-03-20T11:19:37.613Z,-1.21
2018-03-20T11:22:05.224Z,-1.07
2018-03-20T11:24:32.774Z,-1.02
2018-03-20T11:27:00.334Z,-1.02
2018-03-20T11:29:27.916Z,-1.00
2018-03-20T11:31:55.459Z,-1.01
2018-03-20T11:34:23.027Z,-0.73
2018-03-20T11:36:50.650Z,-0.93
2018-03-20T11:39:18.214Z,-0.93
2018-03-20T11:41:45.779Z,-1.20
2018-03-20T11:44:13.357Z,-1.12
2018-03-20T11:46:40.904Z,-0.82
2018-03-20T11:49:08.541Z,-0.74
2018-03-20T11:51:36.102Z,-0.72
2018-03-20T11:54:04.127Z,-0.60
2018-03-20T11:56:31.714Z,-0.69
2018-03-20T11:58:59.299Z,-0.69
2018-03-20T12:01:26.852Z,-0.56
2018-03-20T12:03:54.411Z,-0.67
2018-03-20T12:06:21.946Z,-0.51
2018-03-20T12:08:52.029Z,-0.84
2018-03-20T12:11:19.725Z,-0.78
2018-03-20T12:13:47.295Z,-0.84
2018-03-20T12:16:14.859Z,-0.67
2018-03-20T12:18:42.425Z,-0.81
2018-03-20T12:21:09.990Z,-1.14
2018-03-20T12:23:37.559Z,-1.26
2018-03-20T12:26:05.156Z,-0.95
2018-03-20T12:28:32.733Z,-1.06
2018-03-20T12:31:00.262Z,-0.76
2018-03-20T12:33:27.853Z,-0.70
2018-03-20T12:35:55.418Z,-0.81
2018-03-20T12:38:22.981Z,-0.70
2018-03-20T12:40:50.533Z,-0.96
2018-03-20T12:43:18.110Z,-0.76
2018-03-20T12:45:45.712Z,-0.63
2018-03-20T12:48:13.297Z,-0.51
2018-03-20T12:50:40.874Z,-0.58
2018-03-20T12:53:08.479Z,-0.63
2018-03-20T12:55:36.030Z,-0.60
2018-03-20T12:58:03.599Z,-0.88
2018-03-20T13:00:31.163Z,-0.95
2018-03-20T13:02:58.749Z,-0.85
2018-03-20T13:05:26.323Z,-0.86
2018-03-20T13:07:53.901Z,-0.85
2018-03-20T13:10:21.423Z,-0.79
2018-03-20T13:12:49.012Z,-0.92
2018-03-20T13:15:16.627Z,-0.87
2018-03-20T13:17:44.209Z,-0.72
2018-03-20T13:20:11.782Z,-0.62
2018-03-20T13:22:39.387Z,-0.70
2018-03-20T13:25:06.948Z,-0.72
2018-03-20T13:27:34.525Z,-0.58
2018-03-20T13:30:02.122Z,-0.52
2018-03-20T13:32:29.727Z,-0.63
2018-03-20T13:34:57.325Z,-0.47
2018-03-20T13:37:24.877Z,-0.28
2018-03-20T13:39:52.435Z,-0.45
2018-03-20T13:42:20.024Z,-0.63
2018-03-20T13:44:47.579Z,-0.69
2018-03-20T13:47:15.126Z,-0.45
2018-03-20T13:49:43.659Z,-0.34
2018-03-20T13:52:11.257Z,-0.16
2018-03-20T13:54:38.830Z,-0.08
2018-03-20T13:57:06.402Z,-0.48
2018-03-20T13:59:33.997Z,-0.37
2018-03-20T14:02:01.864Z,-0.50
2018-03-20T14:04:29.406Z,-0.66
2018-03-20T14:06:57.002Z,-0.40
2018-03-20T14:09:24.550Z,-0.24
2018-03-20T14:11:52.147Z,-0.07
2018-03-20T14:14:19.750Z,-0.27
2018-03-20T14:16:47.341Z,-0.04
2018-03-20T14:19:14.910Z,-0.30
2018-03-20T14:21:42.499Z,-0.29
2018-03-20T14:24:10.075Z,-0.33
2018-03-20T14:26:37.656Z,-0.21
2018-03-20T14:29:05.209Z,-0.14
2018-03-20T14:31:32.773Z,-0.13
2018-03-20T14:34:00.354Z,-0.37
2018-03-20T14:36:27.897Z,-0.44
2018-03-20T14:38:55.487Z,-0.45
2018-03-20T14:41:23.078Z,-0.62
2018-03-20T14:43:50.635Z,-0.65
2018-03-20T14:46:18.219Z,-0.68
2018-03-20T14:48:45.806Z,-0.72
2018-03-20T14:51:13.418Z,-0.79
2018-03-20T14:53:42.717Z,-0.75
2018-03-20T14:56:10.305Z,-0.74
2018-03-20T14:58:37.876Z,-0.76
2018-03-20T15:01:05.424Z,-0.86
2018-03-20T15:03:33.206Z,-0.78
2018-03-20T15:06:00.785Z,-0.66
2018-03-20T15:08:28.363Z,-0.55
2018-03-20T15:10:55.930Z,-0.34
2018-03-20T15:13:23.513Z,-0.23
2018-03-20T15:15:51.141Z,0.03
2018-03-20T15:18:18.726Z,0.19
2018-03-20T15:20:46.284Z,0.24
2018-03-20T15:23:13.854Z,0.12
2018-03-20T15:25:41.435Z,0.06
2018-03-20T15:28:08.984Z,-0.27
2018-03-20T15:30:36.540Z,-0.63
2018-03-20T15:33:04.135Z,-0.80
2018-03-20T15:35:31.717Z,-0.80
2018-03-20T15:37:59.302Z,-0.84
2018-03-20T15:40:26.892Z,-0.92
2018-03-20T15:42:54.833Z,-0.93
2018-03-20T15:45:22.410Z,-0.93
2018-03-20T15:47:49.918Z,-0.89
2018-03-20T15:50:17.485Z,-1.02
2018-03-20T15:52:45.061Z,-1.05
2018-03-20T15:55:12.647Z,-1.00
2018-03-20T15:57:40.222Z,-1.17
2018-03-20T16:00:07.805Z,-1.15
2018-03-20T16:02:35.391Z,-1.11
2018-03-20T16:05:02.952Z,-1.09
2018-03-20T16:07:30.554Z,-1.24
2018-03-20T16:09:58.134Z,-1.31
2018-03-20T16:12:25.695Z,-1.35
2018-03-20T16:14:53.293Z,-1.25
2018-03-20T16:17:20.873Z,-1.26
2018-03-20T16:19:48.458Z,-1.36
2018-03-20T16:22:16.039Z,-1.43
2018-03-20T16:24:43.614Z,-1.49
2018-03-20T16:27:11.189Z,-1.55
2018-03-20T16:29:38.859Z,-1.55
2018-03-20T16:32:06.464Z,-1.59
2018-03-20T16:34:34.381Z,-1.59
2018-03-20T16:37:02.014Z,-1.58
2018-03-20T16:39:30.122Z,-1.62
2018-03-20T16:41:57.737Z,-1.63
2018-03-20T16:44:25.355Z,-1.65
2018-03-20T16:46:52.962Z,-1.63
2018-03-20T16:49:20.539Z,-1.71
2018-03-20T16:51:48.118Z,-1.70
2018-03-20T16:54:16.057Z,-1.77
2018-03-20T16:56:43.665Z,-1.84
2018-03-20T16:59:11.997Z,-1.94
2018-03-20T17:01:39.583Z,-1.96
2018-03-20T17:04:07.191Z,-2.03
2018-03-20T17:06:34.759Z,-2.05
2018-03-20T17:09:02.404Z,-2.11
2018-03-20T17:11:30.018Z,-2.17
2018-03-20T17:13:57.689Z,-2.16
2018-03-20T17:16:27.297Z,-2.21
2018-03-20T17:18:54.887Z,-2.26
2018-03-20T17:21:22.771Z,-2.36
2018-03-20T17:23:50.455Z,-2.42
2018-03-20T17:26:18.079Z,-2.42
2018-03-20T17:28:45.651Z,-2.39
2018-03-20T17:31:13.249Z,-2.37
2018-03-20T17:33:41.012Z,-2.41
2018-03-20T17:36:08.593Z,-2.56
2018-03-20T17:38:36.185Z,-2.64
2018-03-20T17:41:04.008Z,-2.65
2018-03-20T17:43:31.598Z,-2.70
2018-03-20T17:45:59.305Z,-2.71
2018-03-20T17:48:27.168Z,-2.73
2018-03-20T17:50:54.751Z,-2.73
2018-03-20T17:53:22.786Z,-2.65
2018-03-20T17:55:50.470Z,-2.64
2018-03-20T17:58:18.454Z,-2.66
2018-03-20T18:00:46.988Z,-2.65
2018-03-20T18:03:14.630Z,-2.62
2018-03-20T18:05:42.222Z,-2.63
2018-03-20T18:08:10.033Z,-2.67
2018-03-20T18:10:37.626Z,-2.78
2018-03-20T18:13:05.225Z,-2.78
2018-03-20T18:15:33.072Z,-2.76
2018-03-20T18:18:00.671Z,-2.79
2018-03-20T18:20:28.324Z,-2.77
2018-03-20T18:22:55.928Z,-2.84
2018-03-20T18:25:23.490Z,-2.90
2018-03-20T18:27:51.118Z,-2.94
2018-03-20T18:30:18.753Z,-2.94
2018-03-20T18:32:46.319Z,-2.95
2018-03-20T18:35:14.333Z,-2.96
2018-03-20T18:37:41.988Z,-2.94
2018-03-20T18:40:09.669Z,-2.88
2018-03-20T18:42:37.403Z,-3.01
2018-03-20T18:45:11.171Z,-3.08
2018-03-20T18:47:38.749Z,-3.13
2018-03-20T18:50:06.466Z,-3.15
2018-03-20T18:52:34.097Z,-3.13
2018-03-20T18:55:01.709Z,-3.13
2018-03-20T18:57:31.040Z,-3.20
2018-03-20T18:59:58.665Z,-3.21
2018-03-20T19:02:26.267Z,-3.27
2018-03-20T19:04:53.833Z,-3.36
2018-03-20T19:07:21.576Z,-3.42
2018-03-20T19:09:49.155Z,-3.33
2018-03-20T19:12:20.948Z,-3.36
2018-03-20T19:14:49.100Z,-3.32
2018-03-20T19:17:16.698Z,-3.40
2018-03-20T19:19:44.316Z,-3.40
2018-03-20T19:22:11.960Z,-3.42
2018-03-20T19:24:39.522Z,-3.42
2018-03-20T19:27:07.478Z,-3.43
2018-03-20T19:29:35.150Z,-3.54
2018-03-20T19:32:02.768Z,-3.48
2018-03-20T19:34:34.950Z,-3.57
2018-03-20T19:37:02.694Z,-3.58
2018-03-20T19:39:30.289Z,-3.56
2018-03-20T19:42:01.309Z,-3.52
2018-03-20T19:44:28.892Z,-3.54
2018-03-20T19:46:56.453Z,-3.57
2018-03-20T19:49:24.085Z,-3.56
2018-03-20T19:51:51.697Z,-3.55
2018-03-20T19:54:20.679Z,-3.59
2018-03-20T19:56:48.949Z,-3.52
2018-03-20T19:59:20.145Z,-3.52
2018-03-20T20:01:47.886Z,-3.55
2018-03-20T20:04:16.390Z,-3.64
2018-03-20T20:06:44.098Z,-3.69
2018-03-20T20:09:13.371Z,-3.69
2018-03-20T20:11:42.194Z,-3.64
2018-03-20T20:14:09.773Z,-3.68
2018-03-20T20:16:37.378Z,-3.66
2018-03-20T20:19:04.949Z,-3.64
2018-03-20T20:21:33.422Z,-3.68
2018-03-20T20:24:00.990Z,-3.72
2018-03-20T20:26:28.632Z,-3.70
2018-03-20T20:28:56.234Z,-3.73
2018-03-20T20:31:24.636Z,-3.70
2018-03-20T20:33:52.248Z,-3.71
2018-03-20T20:36:20.933Z,-3.66
2018-03-20T20:38:48.682Z,-3.72
2018-03-20T20:41:16.459Z,-3.61
2018-03-20T20:43:44.057Z,-3.55
2018-03-20T20:46:11.644Z,-3.52
2018-03-20T20:48:39.648Z,-3.49
2018-03-20T20:51:07.274Z,-3.47
2018-03-20T20:53:35.510Z,-3.43
2018-03-20T20:56:03.102Z,-3.49
2018-03-20T20:58:30.703Z,-3.53
2018-03-20T21:00:58.264Z,-3.55
2018-03-20T21:03:26.122Z,-3.59
2018-03-20T21:05:53.790Z,-3.70
2018-03-20T21:08:21.532Z,-3.66
2018-03-20T21:10:49.155Z,-3.54
2018-03-20T21:13:16.728Z,-3.37
2018-03-20T21:15:44.490Z,-3.32
2018-03-20T21:18:12.130Z,-3.31
2018-03-20T21:20:39.679Z,-3.35
2018-03-20T21:23:07.330Z,-3.28
2018-03-20T21:25:35.206Z,-3.31
2018-03-20T21:28:02.784Z,-3.36
2018-03-20T21:30:30.442Z,-3.40
2018-03-20T21:32:58.075Z,-3.53
2018-03-20T21:35:25.658Z,-3.73
2018-03-20T21:37:53.282Z,-3.87
2018-03-20T21:40:20.876Z,-3.93
2018-03-20T21:42:48.455Z,-3.98
2018-03-20T21:45:17.016Z,-4.03
2018-03-20T21:47:44.889Z,-4.10
2018-03-20T21:50:12.588Z,-4.16
2018-03-20T21:52:40.164Z,-4.17
2018-03-20T21:55:08.817Z,-4.24
2018-03-20T21:57:36.763Z,-4.29
2018-03-20T22:00:04.630Z,-4.63
2018-03-20T22:02:32.238Z,-4.52
2018-03-20T22:04:59.815Z,-4.57
2018-03-20T22:07:27.456Z,-4.63
2018-03-20T22:09:55.258Z,-4.58
2018-03-20T22:12:22.918Z,-4.69
2018-03-20T22:14:50.508Z,-4.66
2018-03-20T22:17:18.362Z,-4.73
2018-03-20T22:19:45.951Z,-4.79
2018-03-20T22:22:14.168Z,-4.75
2018-03-20T22:24:41.752Z,-4.72
2018-03-20T22:27:10.605Z,-4.76
2018-03-20T22:29:38.723Z,-4.94
2018-03-20T22:32:08.355Z,-5.07
2018-03-20T22:34:35.922Z,-5.18
2018-03-20T22:37:03.536Z,-5.31
2018-03-20T22:39:31.230Z,-5.51
2018-03-20T22:41:58.913Z,-5.68
2018-03-20T22:44:26.459Z,-5.80
2018-03-20T22:46:54.073Z,-5.79
2018-03-20T22:49:22.205Z,-5.90
2018-03-20T22:51:49.812Z,-5.96
2018-03-20T22:54:17.532Z,-6.00
2018-03-20T22:56:45.095Z,-6.07
2018-03-20T22:59:13.022Z,-6.06
2018-03-20T23:01:40.908Z,-6.07
2018-03-20T23:04:08.550Z,-6.07
2018-03-20T23:06:37.627Z,-6.10
2018-03-20T23:09:05.826Z,-6.12
2018-03-20T23:11:34.570Z,-6.14
2018-03-20T23:14:02.462Z,-6.14
2018-03-20T23:16:31.767Z,-6.14
2018-03-20T23:19:00.323Z,-6.17
2018-03-20T23:21:28.476Z,-6.19
2018-03-20T23:23:56.059Z,-6.18
2018-03-20T23:26:23.636Z,-6.20
2018-03-20T23:28:51.297Z,-6.10
2018-03-20T23:31:19.350Z,-6.06
2018-03-20T23:33:47.257Z,-6.14
2018-03-20T23:36:14.830Z,-6.17
2018-03-20T23:38:45.187Z,-6.23
2018-03-20T23:41:12.930Z,-6.20
2018-03-20T23:43:40.507Z,-6.24
2018-03-20T23:46:08.069Z,-6.27
2018-03-20T23:48:40.017Z,-6.31
2018-03-20T23:51:08.083Z,-6.31
2018-03-20T23:53:35.783Z,-6.33
2018-03-20T23:56:03.431Z,-6.27
2018-03-20T23:58:30.981Z,-6.04
